createdAt,value
2022-11-12T00:01:59.809Z,70.64
2022-11-12T00:05:06.028Z,70.79
2022-11-12T00:08:12.614Z,70.90
2022-11-12T00:11:18.845Z,71.41
2022-11-12T00:14:25.263Z,71.39
2022-11-12T00:17:31.674Z,71.57
2022-11-12T00:20:38.150Z,71.52
2022-11-12T00:23:44.587Z,71.73
2022-11-12T00:26:50.651Z,71.87
2022-11-12T00:29:57.177Z,71.93
2022-11-12T00:33:04.966Z,72.19
2022-11-12T00:36:11.803Z,72.51
2022-11-12T00:39:18.295Z,72.56
2022-11-12T00:42:24.499Z,72.78
2022-11-12T00:45:30.520Z,72.58
2022-11-12T00:48:36.696Z,72.39
2022-11-12T00:51:43.368Z,72.51
2022-11-12T00:54:49.344Z,72.88
2022-11-12T00:57:57.712Z,73.12
2022-11-12T01:01:10.048Z,73.23
2022-11-12T01:04:16.259Z,73.36
2022-11-12T01:07:22.660Z,73.35
2022-11-12T01:10:28.770Z,73.56
2022-11-12T01:13:37.792Z,73.62
2022-11-12T01:16:47.822Z,73.60
2022-11-12T01:19:54.449Z,73.78
2022-11-12T01:23:00.464Z,73.82
2022-11-12T01:26:08.312Z,73.78
2022-11-12T01:29:14.615Z,73.62
2022-11-12T01:32:20.698Z,73.89
2022-11-12T01:35:26.587Z,73.57
2022-11-12T01:38:37.616Z,73.55
2022-11-12T01:41:44.041Z,73.57
2022-11-12T01:44:52.066Z,73.63
2022-11-12T01:47:58.375Z,73.55
2022-11-12T01:51:07.110Z,73.62
2022-11-12T01:54:17.865Z,73.61
2022-11-12T01:57:34.382Z,73.57
2022-11-12T02:00:41.874Z,73.81
2022-11-12T02:03:48.144Z,73.87
2022-11-12T02:06:57.503Z,73.83
2022-11-12T02:10:05.797Z,73.96
2022-11-12T02:13:30.775Z,74.04
2022-11-12T02:16:40.250Z,73.94
2022-11-12T02:19:47.422Z,74.00
2022-11-12T02:22:53.275Z,74.08
2022-11-12T02:26:01.011Z,74.12
2022-11-12T02:29:07.220Z,74.04
2022-11-12T02:32:14.306Z,74.37
2022-11-12T02:35:20.545Z,74.13
2022-11-12T02:38:27.103Z,74.16
2022-11-12T02:41:33.294Z,74.06
2022-11-12T02:44:39.898Z,74.21
2022-11-12T02:47:45.965Z,74.25
2022-11-12T02:50:52.526Z,74.04
2022-11-12T02:53:58.851Z,74.06
2022-11-12T02:57:04.705Z,74.10
2022-11-12T03:00:13.393Z,74.12
2022-11-12T03:03:19.548Z,74.28
2022-11-12T03:06:25.663Z,74.27
2022-11-12T03:09:32.137Z,74.24
2022-11-12T03:12:38.478Z,74.44
2022-11-12T03:15:44.812Z,74.11
2022-11-12T03:18:50.973Z,74.04
2022-11-12T03:21:56.919Z,74.01
2022-11-12T03:25:03.665Z,73.86
2022-11-12T03:28:13.389Z,73.93
2022-11-12T03:31:20.468Z,73.89
2022-11-12T03:34:26.487Z,73.89
2022-11-12T03:37:32.444Z,73.82
2022-11-12T03:40:38.799Z,73.94
2022-11-12T03:43:45.020Z,73.63
2022-11-12T03:46:51.226Z,73.90
2022-11-12T03:49:57.211Z,73.78
2022-11-12T03:53:04.010Z,73.78
2022-11-12T03:56:10.184Z,73.72
2022-11-12T03:59:16.271Z,73.69
2022-11-12T04:02:22.432Z,73.67
2022-11-12T04:06:04.148Z,73.73
2022-11-12T04:09:10.600Z,73.72
2022-11-12T04:12:55.262Z,73.82
2022-11-12T04:16:41.452Z,73.66
2022-11-12T04:20:06.299Z,73.69
2022-11-12T04:23:12.221Z,73.58
2022-11-12T04:26:24.477Z,73.52
2022-11-12T04:29:49.808Z,73.43
2022-11-12T04:32:56.911Z,73.65
2022-11-12T04:36:03.894Z,73.40
2022-11-12T04:39:09.911Z,73.52
2022-11-12T04:42:34.802Z,73.46
2022-11-12T04:45:43.556Z,73.33
2022-11-12T04:48:49.499Z,73.43
2022-11-12T04:52:07.627Z,73.45
2022-11-12T04:55:13.833Z,73.25
2022-11-12T04:58:20.226Z,73.37
2022-11-12T05:01:26.541Z,73.26
2022-11-12T05:04:32.714Z,73.34
2022-11-12T05:07:39.127Z,73.31
2022-11-12T05:10:45.345Z,73.30
2022-11-12T05:13:51.721Z,73.40
2022-11-12T05:16:57.925Z,73.35
2022-11-12T05:20:04.936Z,73.26
2022-11-12T05:23:11.440Z,73.12
2022-11-12T05:26:17.805Z,73.22
2022-11-12T05:29:24.283Z,73.12
2022-11-12T05:32:30.239Z,73.08
2022-11-12T05:35:36.290Z,73.02
2022-11-12T05:38:42.355Z,72.97
2022-11-12T05:42:11.495Z,73.07
2022-11-12T05:45:15.145Z,72.69
2022-11-12T05:48:24.440Z,72.80
2022-11-12T05:51:30.961Z,72.72
2022-11-12T05:54:37.077Z,72.60
2022-11-12T05:57:42.932Z,72.36
2022-11-12T06:00:49.344Z,72.69
2022-11-12T06:03:56.479Z,72.45
2022-11-12T06:07:04.315Z,72.41
2022-11-12T06:10:10.366Z,72.30
2022-11-12T06:13:16.470Z,72.35
2022-11-12T06:16:22.346Z,72.30
2022-11-12T06:19:28.705Z,72.27
2022-11-12T06:22:35.057Z,72.23
2022-11-12T06:25:41.350Z,72.23
2022-11-12T06:28:49.248Z,72.35
2022-11-12T06:31:55.506Z,72.08
2022-11-12T06:35:01.818Z,72.22
2022-11-12T06:38:08.314Z,72.16
2022-11-12T06:41:17.408Z,71.95
2022-11-12T06:44:24.043Z,71.60
2022-11-12T06:47:30.279Z,71.77
2022-11-12T06:50:36.314Z,71.66
2022-11-12T06:53:42.296Z,71.46
2022-11-12T06:56:48.272Z,71.57
2022-11-12T06:59:54.440Z,71.68
2022-11-12T07:03:00.682Z,71.70
2022-11-12T07:06:13.128Z,71.56
2022-11-12T07:09:19.483Z,71.77
2022-11-12T07:12:25.872Z,71.39
2022-11-12T07:15:32.138Z,71.12
2022-11-12T07:18:38.827Z,71.18
2022-11-12T07:21:45.101Z,71.09
2022-11-12T07:24:51.352Z,71.08
2022-11-12T07:27:57.428Z,70.76
2022-11-12T07:31:06.840Z,70.93
2022-11-12T07:34:13.063Z,70.76
2022-11-12T07:37:19.427Z,70.48
2022-11-12T07:40:25.770Z,70.11
2022-11-12T07:43:33.654Z,69.77
2022-11-12T07:46:40.306Z,69.89
2022-11-12T07:49:46.524Z,70.10
2022-11-12T07:52:53.161Z,70.05
2022-11-12T07:56:01.434Z,70.10
2022-11-12T07:59:08.041Z,70.07
2022-11-12T08:02:14.259Z,70.14
2022-11-12T08:05:21.609Z,70.04
2022-11-12T08:08:30.252Z,69.97
2022-11-12T08:11:36.557Z,69.78
2022-11-12T08:14:42.753Z,69.85
2022-11-12T08:17:51.073Z,69.88
2022-11-12T08:21:04.733Z,69.57
2022-11-12T08:24:11.005Z,69.73
2022-11-12T08:27:17.228Z,69.38
2022-11-12T08:30:23.738Z,69.55
2022-11-12T08:33:30.844Z,69.48
2022-11-12T08:36:37.275Z,69.44
2022-11-12T08:39:43.706Z,69.63
2022-11-12T08:43:04.442Z,69.25
2022-11-12T08:46:10.455Z,69.00
2022-11-12T08:49:16.347Z,68.98
2022-11-12T08:52:22.646Z,69.04
2022-11-12T08:55:35.813Z,68.86
2022-11-12T08:58:41.855Z,68.85
2022-11-12T09:01:48.170Z,68.76
2022-11-12T09:04:54.683Z,68.66
2022-11-12T09:08:10.252Z,68.53
2022-11-12T09:11:18.080Z,68.46
2022-11-12T09:14:24.346Z,68.17
2022-11-12T09:17:32.640Z,67.85
2022-11-12T09:20:38.707Z,68.21
2022-11-12T09:23:44.727Z,68.64
2022-11-12T09:26:53.911Z,68.58
2022-11-12T09:30:00.911Z,68.68
2022-11-12T09:33:07.064Z,68.71
2022-11-12T09:36:13.162Z,68.39
2022-11-12T09:39:19.555Z,67.97
2022-11-12T09:42:25.723Z,68.15
2022-11-12T09:45:33.130Z,68.21
2022-11-12T09:48:44.336Z,68.14
2022-11-12T09:51:55.005Z,68.30
2022-11-12T09:55:26.101Z,68.10
2022-11-12T09:58:32.018Z,68.34
2022-11-12T10:01:41.214Z,68.37
2022-11-12T10:05:12.488Z,68.11
2022-11-12T10:08:40.700Z,68.30
2022-11-12T10:12:22.369Z,68.42
2022-11-12T10:15:58.166Z,68.33
2022-11-12T10:19:27.013Z,68.13
2022-11-12T10:23:11.494Z,68.06
2022-11-12T10:26:20.638Z,68.02
2022-11-12T10:29:40.614Z,67.90
2022-11-12T10:32:48.620Z,68.01
2022-11-12T10:35:57.148Z,68.10
2022-11-12T10:39:03.635Z,68.33
2022-11-12T10:42:13.089Z,68.55
2022-11-12T10:45:22.096Z,68.47
2022-11-12T10:48:33.362Z,68.55
2022-11-12T10:51:40.505Z,68.41
2022-11-12T10:54:50.979Z,68.38
2022-11-12T10:58:09.422Z,68.47
2022-11-12T11:01:17.950Z,68.48
2022-11-12T11:04:36.137Z,68.46
2022-11-12T11:07:50.146Z,68.38
2022-11-12T11:11:21.537Z,68.50
2022-11-12T11:14:33.540Z,68.47
2022-11-12T11:17:39.884Z,68.67
2022-11-12T11:20:56.545Z,68.99
2022-11-12T11:24:21.781Z,69.03
2022-11-12T11:27:51.060Z,69.34
2022-11-12T11:31:16.993Z,69.61
2022-11-12T11:34:37.593Z,69.76
2022-11-12T11:38:21.884Z,69.67
2022-11-12T11:41:30.914Z,69.46
2022-11-12T11:44:37.173Z,69.12
2022-11-12T11:48:01.812Z,69.49
2022-11-12T11:51:36.990Z,69.91
2022-11-12T11:54:48.874Z,69.79
2022-11-12T11:58:01.203Z,69.88
2022-11-12T12:01:26.561Z,70.11
2022-11-12T12:04:38.819Z,70.31
2022-11-12T12:08:10.973Z,70.40
2022-11-12T12:11:41.921Z,70.65
2022-11-12T12:15:30.483Z,71.00
2022-11-12T12:18:42.664Z,71.33
2022-11-12T12:21:51.253Z,71.17
2022-11-12T12:25:03.645Z,71.25
2022-11-12T12:28:21.679Z,71.41
2022-11-12T12:31:36.369Z,71.87
2022-11-12T12:34:51.338Z,71.88
2022-11-12T12:38:22.403Z,72.05
2022-11-12T12:41:39.682Z,72.48
2022-11-12T12:45:00.982Z,72.67
2022-11-12T12:48:14.409Z,72.58
2022-11-12T12:51:21.869Z,72.82
2022-11-12T12:54:40.408Z,72.81
2022-11-12T12:57:46.546Z,72.88
2022-11-12T13:00:59.197Z,72.88
2022-11-12T13:04:08.959Z,72.80
2022-11-12T13:07:15.653Z,72.85
2022-11-12T13:10:49.568Z,72.83
2022-11-12T13:13:55.892Z,72.71
2022-11-12T13:17:08.333Z,72.85
2022-11-12T13:20:33.418Z,72.81
2022-11-12T13:24:13.228Z,72.97
2022-11-12T13:27:39.304Z,73.02
2022-11-12T13:30:45.464Z,73.13
2022-11-12T13:33:52.498Z,73.38
2022-11-12T13:37:04.959Z,73.46
2022-11-12T13:40:15.630Z,73.42
2022-11-12T13:43:36.180Z,73.34
2022-11-12T13:46:44.197Z,73.35
2022-11-12T13:49:50.721Z,73.25
2022-11-12T13:52:56.742Z,73.37
2022-11-12T13:56:02.743Z,73.38
2022-11-12T13:59:16.219Z,73.52
2022-11-12T14:02:26.831Z,73.43
2022-11-12T14:05:35.570Z,73.44
2022-11-12T14:08:53.433Z,73.65
2022-11-12T14:12:17.629Z,73.70
2022-11-12T14:15:47.771Z,73.69
2022-11-12T14:19:02.860Z,73.82
2022-11-12T14:22:09.161Z,74.13
2022-11-12T14:25:20.255Z,74.22
2022-11-12T14:28:31.454Z,74.28
2022-11-12T14:31:37.930Z,74.31
2022-11-12T14:34:44.101Z,74.17
2022-11-12T14:38:00.170Z,74.26
2022-11-12T14:41:26.101Z,74.40
2022-11-12T14:44:36.095Z,74.55
2022-11-12T14:47:42.591Z,74.66
2022-11-12T14:50:51.502Z,74.82
2022-11-12T14:54:05.940Z,74.94
2022-11-12T14:57:22.830Z,75.40
2022-11-12T15:00:32.110Z,75.67
2022-11-12T15:03:38.655Z,75.69
2022-11-12T15:06:55.022Z,75.64
2022-11-12T15:10:21.420Z,75.56
2022-11-12T15:13:28.004Z,75.34
2022-11-12T15:16:36.297Z,75.27
2022-11-12T15:19:42.854Z,75.32
2022-11-12T15:22:53.970Z,75.63
2022-11-12T15:26:01.466Z,75.52
2022-11-12T15:29:10.324Z,75.43
2022-11-12T15:32:16.757Z,75.50
2022-11-12T15:35:26.160Z,75.40
2022-11-12T15:38:37.868Z,75.36
2022-11-12T15:41:43.978Z,75.30
2022-11-12T15:44:57.138Z,74.96
2022-11-12T15:48:03.365Z,75.00
2022-11-12T15:51:20.769Z,74.89
2022-11-12T15:54:27.015Z,74.95
2022-11-12T15:57:41.000Z,74.78
2022-11-12T16:00:51.510Z,74.29
2022-11-12T16:03:57.936Z,74.28
2022-11-12T16:07:07.009Z,74.38
2022-11-12T16:10:18.522Z,74.31
2022-11-12T16:13:31.068Z,74.06
2022-11-12T16:16:39.340Z,73.84
2022-11-12T16:19:45.387Z,73.48
2022-11-12T16:22:52.478Z,73.06
2022-11-12T16:25:58.429Z,72.60
2022-11-12T16:29:12.943Z,72.08
2022-11-12T16:32:18.951Z,72.39
2022-11-12T16:35:25.757Z,72.19
2022-11-12T16:38:31.597Z,71.87
2022-11-12T16:41:37.489Z,71.53
2022-11-12T16:44:43.355Z,71.23
2022-11-12T16:47:56.493Z,70.73
2022-11-12T16:51:02.402Z,70.52
2022-11-12T16:54:08.440Z,69.94
2022-11-12T16:57:14.661Z,69.79
2022-11-12T17:00:20.924Z,69.85
2022-11-12T17:03:27.173Z,69.56
2022-11-12T17:06:36.770Z,69.09
2022-11-12T17:09:43.291Z,68.88
2022-11-12T17:12:53.362Z,68.72
2022-11-12T17:16:00.076Z,68.48
2022-11-12T17:19:06.325Z,68.40
2022-11-12T17:22:12.717Z,68.12
2022-11-12T17:25:18.743Z,67.91
2022-11-12T17:28:24.823Z,67.81
2022-11-12T17:31:31.459Z,67.60
2022-11-12T17:34:37.817Z,67.14
2022-11-12T17:37:44.941Z,67.08
2022-11-12T17:40:54.805Z,66.94
2022-11-12T17:44:01.827Z,66.92
2022-11-12T17:47:08.143Z,66.99
2022-11-12T17:50:14.500Z,67.16
2022-11-12T17:53:20.926Z,67.12
2022-11-12T17:56:27.215Z,66.81
2022-11-12T17:59:33.542Z,66.62
2022-11-12T18:02:39.616Z,66.49
2022-11-12T18:05:45.921Z,66.30
2022-11-12T18:08:57.450Z,66.50
2022-11-12T18:12:03.913Z,66.33
2022-11-12T18:15:11.353Z,66.47
2022-11-12T18:18:18.736Z,66.44
2022-11-12T18:21:26.358Z,66.12
2022-11-12T18:24:32.536Z,65.89
2022-11-12T18:27:38.564Z,65.82
2022-11-12T18:30:44.859Z,65.51
2022-11-12T18:33:53.288Z,65.82
2022-11-12T18:36:59.213Z,65.44
2022-11-12T18:40:06.057Z,65.16
2022-11-12T18:43:12.192Z,64.85
2022-11-12T18:46:18.454Z,64.93
2022-11-12T18:49:24.938Z,64.72
2022-11-12T18:52:33.603Z,64.51
2022-11-12T18:55:39.798Z,64.38
2022-11-12T18:58:46.447Z,64.49
2022-11-12T19:01:52.736Z,64.35
2022-11-12T19:04:58.767Z,64.12
2022-11-12T19:08:05.143Z,64.05
2022-11-12T19:11:13.533Z,64.30
2022-11-12T19:14:19.589Z,64.15
2022-11-12T19:17:30.511Z,63.80
2022-11-12T19:20:37.249Z,63.35
2022-11-12T19:23:44.265Z,63.03
2022-11-12T19:26:51.522Z,63.01
2022-11-12T19:30:02.625Z,62.47
2022-11-12T19:33:09.498Z,62.23
2022-11-12T19:36:18.186Z,62.21
2022-11-12T19:39:24.441Z,62.19
2022-11-12T19:42:30.495Z,62.20
2022-11-12T19:45:36.397Z,61.88
2022-11-12T19:48:43.202Z,61.94
2022-11-12T19:51:49.614Z,61.89
2022-11-12T19:54:56.130Z,61.83
2022-11-12T19:58:02.308Z,61.85
2022-11-12T20:01:11.463Z,61.60
2022-11-12T20:04:22.993Z,61.56
2022-11-12T20:07:30.705Z,61.62
2022-11-12T20:10:36.925Z,61.29
2022-11-12T20:13:43.735Z,61.23
2022-11-12T20:16:50.941Z,61.02
2022-11-12T20:19:57.022Z,61.00
2022-11-12T20:23:03.277Z,61.22
2022-11-12T20:26:11.483Z,61.49
2022-11-12T20:29:17.703Z,61.01
2022-11-12T20:32:23.382Z,61.08
2022-11-12T20:35:29.479Z,60.96
2022-11-12T20:38:39.953Z,60.90
2022-11-12T20:41:46.187Z,60.56
2022-11-12T20:44:53.702Z,60.68
2022-11-12T20:47:59.983Z,60.71
2022-11-12T20:51:23.193Z,60.99
2022-11-12T20:54:30.344Z,61.00
2022-11-12T20:57:36.462Z,61.18
2022-11-12T21:00:43.295Z,61.03
2022-11-12T21:03:49.332Z,61.01
2022-11-12T21:06:59.779Z,61.22
2022-11-12T21:10:10.015Z,61.21
2022-11-12T21:13:16.217Z,61.29
2022-11-12T21:16:22.335Z,61.16
2022-11-12T21:19:28.638Z,61.00
2022-11-12T21:22:34.511Z,61.04
2022-11-12T21:25:40.642Z,61.17
2022-11-12T21:28:52.755Z,61.14
2022-11-12T21:31:58.914Z,61.08
2022-11-12T21:35:05.429Z,60.96
2022-11-12T21:38:11.794Z,61.02
2022-11-12T21:41:20.782Z,60.83
2022-11-12T21:44:27.107Z,60.93
2022-11-12T21:47:33.614Z,60.91
2022-11-12T21:50:39.876Z,60.89
2022-11-12T21:53:46.526Z,61.01
2022-11-12T21:56:52.532Z,60.67
2022-11-12T22:00:19.500Z,60.72
2022-11-12T22:03:25.167Z,60.58
2022-11-12T22:06:31.627Z,60.64
2022-11-12T22:09:37.854Z,60.01
2022-11-12T22:13:04.815Z,59.99
2022-11-12T22:16:15.989Z,59.71
2022-11-12T22:19:23.724Z,59.40
2022-11-12T22:22:29.813Z,59.13
2022-11-12T22:25:35.687Z,58.63
2022-11-12T22:28:41.742Z,58.85
2022-11-12T22:31:47.668Z,57.92
2022-11-12T22:34:53.782Z,57.95
2022-11-12T22:37:59.687Z,57.81
2022-11-12T22:41:11.501Z,57.18
2022-11-12T22:44:18.962Z,56.71
2022-11-12T22:47:25.042Z,56.60
2022-11-12T22:50:31.247Z,56.48
2022-11-12T22:53:37.214Z,55.72
2022-11-12T22:56:43.137Z,55.40
2022-11-12T22:59:49.417Z,55.54
2022-11-12T23:02:55.569Z,55.72
2022-11-12T23:06:04.338Z,55.67
2022-11-12T23:09:15.069Z,55.70
2022-11-12T23:12:21.232Z,54.99
2022-11-12T23:15:30.934Z,55.05
2022-11-12T23:18:37.598Z,55.11
2022-11-12T23:21:43.822Z,54.67
2022-11-12T23:24:49.907Z,54.33
2022-11-12T23:27:55.850Z,54.72
2022-11-12T23:31:03.774Z,54.28
2022-11-12T23:34:10.005Z,54.49
2022-11-12T23:37:15.792Z,54.05
2022-11-12T23:40:21.812Z,53.62
2022-11-12T23:43:28.023Z,53.48
2022-11-12T23:46:33.883Z,52.72
2022-11-12T23:49:39.937Z,52.40
2022-11-12T23:52:46.688Z,52.16
2022-11-12T23:55:53.363Z,52.10
2022-11-12T23:58:59.482Z,52.14
